Time;durP1;ratioP1;P1;durP2;ratioP2;P2;SDS_P1;SDS_P2;PMS_P1;PMS_P2;Temp;Humidity;BMP_temperature;BMP_pressure;BME280_temperature;BME280_humidity;BME280_pressure;Samples;Min_cycle;Max_cycle;Signal;HPM_P1;HPM_P2
2023/01/31 00:01:17;;;;;;;14.13;3.42;;;4.00;1.00;;;;;;6346690;22;20211;-77
2023/01/31 00:03:44;;;;;;;18.92;4.25;;;4.00;1.00;;;;;;6346769;22;20944;-78
2023/01/31 00:06:14;;;;;;;16.92;3.67;;;4.00;1.00;;;;;;6344367;22;20211;-77
2023/01/31 00:08:42;;;;;;;18.38;4.57;;;4.00;1.00;;;;;;6346184;22;20309;-78
2023/01/31 00:11:09;;;;;;;17.02;3.72;;;4.00;1.00;;;;;;6347917;22;20242;-81
2023/01/31 00:13:36;;;;;;;15.70;4.00;;;3.90;1.00;;;;;;6345699;22;20211;-78
2023/01/31 00:16:06;;;;;;;15.82;3.65;;;3.90;1.00;;;;;;6347816;22;20968;-78
2023/01/31 00:18:33;;;;;;;18.27;4.57;;;3.90;1.00;;;;;;6346163;22;20674;-79
2023/01/31 00:21:05;;;;;;;17.48;4.15;;;3.90;1.00;;;;;;6349524;22;20236;-78
2023/01/31 00:23:34;;;;;;;13.32;4.00;;;3.90;1.00;;;;;;6349421;22;20215;-76
2023/01/31 00:26:10;;;;;;;12.65;3.70;;;3.90;1.00;;;;;;6348080;22;20218;-78
2023/01/31 00:28:37;;;;;;;12.98;3.55;;;3.80;1.00;;;;;;6349366;22;20369;-77
2023/01/31 00:31:06;;;;;;;17.23;3.90;;;3.90;1.00;;;;;;6348489;22;20215;-77
2023/01/31 00:33:33;;;;;;;17.02;3.90;;;3.90;1.00;;;;;;6346534;22;20648;-80
2023/01/31 00:36:03;;;;;;;16.20;3.78;;;3.80;1.00;;;;;;6345417;22;20214;-78
2023/01/31 00:38:31;;;;;;;15.82;3.95;;;3.80;1.00;;;;;;6347119;22;20215;-77
2023/01/31 00:40:59;;;;;;;15.95;3.72;;;3.80;1.00;;;;;;6347089;22;20292;-77
2023/01/31 00:43:26;;;;;;;13.30;3.35;;;3.80;1.00;;;;;;6345384;22;20253;-78
2023/01/31 00:45:53;;;;;;;13.15;3.95;;;3.80;1.00;;;;;;6349055;22;20253;-76
2023/01/31 00:48:24;;;;;;;12.05;3.78;;;3.80;1.00;;;;;;6347062;22;20871;-78
2023/01/31 00:50:51;;;;;;;14.52;2.88;;;3.80;1.00;;;;;;6346962;22;20206;-78
2023/01/31 00:53:22;;;;;;;11.25;3.55;;;3.80;1.00;;;;;;6345582;22;20218;-77
2023/01/31 00:55:49;;;;;;;20.08;3.60;;;3.80;1.00;;;;;;6348201;22;20927;-78
2023/01/31 00:58:16;;;;;;;21.02;3.50;;;3.80;1.00;;;;;;6346331;22;20210;-77
2023/01/31 01:00:43;;;;;;;11.23;3.55;;;3.90;1.00;;;;;;6346692;22;20210;-78
2023/01/31 01:03:10;;;;;;;12.38;2.95;;;4.00;1.00;;;;;;6344228;22;20234;-82
2023/01/31 01:05:43;;;;;;;12.95;3.55;;;4.10;1.00;;;;;;6346415;22;20322;-80
2023/01/31 01:08:10;;;;;;;12.65;2.53;;;4.10;1.00;;;;;;6344471;22;20225;-82
2023/01/31 01:10:40;;;;;;;11.63;2.92;;;4.20;1.00;;;;;;6314698;22;20980;-78
2023/01/31 01:13:08;;;;;;;15.02;3.35;;;4.20;1.00;;;;;;6317833;22;20239;-83
2023/01/31 01:15:43;;;;;;;15.52;3.90;;;4.30;1.00;;;;;;6327024;22;20211;-78
2023/01/31 01:18:10;;;;;;;18.13;3.15;;;4.30;1.00;;;;;;6323276;22;21002;-83
2023/01/31 01:20:43;;;;;;;11.95;3.00;;;4.30;1.00;;;;;;6312617;22;20285;-84
2023/01/31 01:23:10;;;;;;;12.95;3.55;;;4.40;1.00;;;;;;6338697;22;20314;-81
2023/01/31 01:25:44;;;;;;;12.13;2.90;;;4.30;1.00;;;;;;6350778;22;20211;-78
2023/01/31 01:28:13;;;;;;;12.73;2.97;;;4.40;1.00;;;;;;6320704;22;20253;-80
2023/01/31 01:30:43;;;;;;;12.90;3.55;;;4.30;1.00;;;;;;6324822;22;20217;-78
2023/01/31 01:33:10;;;;;;;18.08;3.40;;;4.30;1.00;;;;;;6293980;22;20682;-81
2023/01/31 01:35:44;;;;;;;17.85;3.60;;;4.30;1.00;;;;;;6338347;22;20211;-77
2023/01/31 01:38:11;;;;;;;15.07;3.55;;;4.40;1.00;;;;;;6335688;22;20211;-82
2023/01/31 01:40:43;;;;;;;12.27;2.80;;;4.40;1.00;;;;;;6323632;22;21022;-82
2023/01/31 01:43:11;;;;;;;9.82;2.22;;;4.40;1.00;;;;;;6305959;22;20621;-82
2023/01/31 01:45:44;;;;;;;15.60;3.08;;;4.40;1.00;;;;;;6316783;22;20211;-81
2023/01/31 01:48:16;;;;;;;13.02;2.95;;;4.40;1.00;;;;;;6307868;22;20218;-83
2023/01/31 01:50:49;;;;;;;14.55;2.72;;;4.40;1.00;;;;;;6354860;22;20210;-84
2023/01/31 01:53:23;;;;;;;11.00;2.80;;;4.40;1.00;;;;;;6350119;22;20210;-80
2023/01/31 01:55:54;;;;;;;20.98;5.40;;;4.40;1.00;;;;;;6333242;22;20195;-82
2023/01/31 01:58:27;;;;;;;14.15;3.50;;;4.40;1.00;;;;;;6324853;22;20203;-77
2023/01/31 02:00:56;;;;;;;11.85;2.85;;;4.40;1.00;;;;;;6352483;22;20217;-80
2023/01/31 02:03:24;;;;;;;10.25;2.90;;;4.40;1.00;;;;;;6330868;22;20194;-79
2023/01/31 02:05:56;;;;;;;14.52;3.17;;;4.40;1.00;;;;;;6327677;22;20211;-81
2023/01/31 02:08:26;;;;;;;12.75;2.75;;;4.40;1.00;;;;;;6337830;22;20192;-76
2023/01/31 02:10:58;;;;;;;10.27;2.58;;;4.50;1.00;;;;;;6350016;22;20199;-82
2023/01/31 02:13:29;;;;;;;13.38;3.00;;;4.40;1.00;;;;;;6332089;22;20687;-82
2023/01/31 02:15:57;;;;;;;16.23;2.22;;;4.50;1.00;;;;;;6317544;22;20222;-81
2023/01/31 02:18:25;;;;;;;13.30;2.40;;;4.40;1.00;;;;;;6351821;22;20219;-83
2023/01/31 02:21:28;;;;;;;11.68;3.30;;;4.40;1.00;;;;;;6353069;22;21073;-78
2023/01/31 02:24:43;;;;;;;14.50;2.80;;;4.40;1.00;;;;;;6304970;22;20213;-80
2023/01/31 02:27:45;;;;;;;16.35;3.42;;;4.40;1.00;;;;;;6344870;22;20206;-77
2023/01/31 02:30:44;;;;;;;18.23;3.47;;;4.40;1.00;;;;;;6287390;22;20222;-78
2023/01/31 02:33:21;;;;;;;12.00;2.60;;;4.40;1.00;;;;;;6345468;22;20733;-76
2023/01/31 02:35:58;;;;;;;13.45;2.50;;;4.50;1.00;;;;;;6344827;22;20767;-77
2023/01/31 02:38:38;;;;;;;14.30;3.13;;;4.50;1.00;;;;;;6346859;22;20717;-77
2023/01/31 02:41:14;;;;;;;12.95;3.00;;;4.50;1.00;;;;;;6345399;22;20881;-76
2023/01/31 02:46:42;;;;;;;14.25;3.55;;;4.50;1.00;;;;;;6345083;22;20211;-78
2023/01/31 02:49:33;;;;;;;14.32;3.15;;;4.50;1.00;;;;;;6346024;22;20210;-78
2023/01/31 02:52:19;;;;;;;12.40;2.70;;;4.50;1.00;;;;;;6334099;22;20289;-78
2023/01/31 02:57:51;;;;;;;11.48;2.60;;;4.50;1.00;;;;;;6345765;22;20210;-78
2023/01/31 03:00:19;;;;;;;13.25;2.88;;;4.50;1.00;;;;;;6345363;22;20218;-81
2023/01/31 03:02:46;;;;;;;15.82;2.58;;;4.40;1.00;;;;;;6346422;22;20264;-80
2023/01/31 03:05:17;;;;;;;13.13;2.60;;;4.20;1.00;;;;;;6344185;22;20260;-77
2023/01/31 03:07:47;;;;;;;12.90;3.28;;;4.10;1.00;;;;;;6344968;22;20229;-80
2023/01/31 03:10:26;;;;;;;12.75;3.08;;;4.00;1.00;;;;;;6344375;22;20215;-78
2023/01/31 03:13:08;;;;;;;15.77;3.10;;;4.00;1.00;;;;;;6346262;22;20214;-78
2023/01/31 03:18:35;;;;;;;17.40;2.67;;;3.80;1.00;;;;;;6347449;22;20256;-77
2023/01/31 03:21:10;;;;;;;14.75;3.50;;;3.80;1.00;;;;;;6345894;22;20267;-78
2023/01/31 03:23:38;;;;;;;12.98;2.47;;;3.70;1.00;;;;;;6345584;22;20197;-78
2023/01/31 03:26:07;;;;;;;13.13;2.72;;;3.60;1.00;;;;;;6344462;22;20246;-78
2023/01/31 03:28:38;;;;;;;18.48;3.25;;;3.60;1.00;;;;;;6347575;22;20966;-78
2023/01/31 03:31:10;;;;;;;15.15;3.75;;;3.60;1.00;;;;;;6347815;22;20210;-77
2023/01/31 03:33:39;;;;;;;10.73;2.50;;;3.60;1.00;;;;;;6347458;22;20225;-77
2023/01/31 03:36:24;;;;;;;12.80;2.80;;;3.50;1.00;;;;;;6346850;22;20226;-77
2023/01/31 03:39:05;;;;;;;10.02;3.17;;;3.50;1.00;;;;;;6347807;22;20214;-77
2023/01/31 03:41:47;;;;;;;15.70;2.75;;;3.40;1.00;;;;;;6345531;22;20272;-78
2023/01/31 03:44:23;;;;;;;14.95;2.92;;;3.40;1.00;;;;;;6346247;22;20222;-77
2023/01/31 03:46:55;;;;;;;12.20;2.75;;;3.40;1.00;;;;;;6320665;22;20954;-78
2023/01/31 03:49:26;;;;;;;15.60;3.38;;;3.40;1.00;;;;;;6347645;22;20275;-77
2023/01/31 03:52:04;;;;;;;11.55;2.28;;;3.40;1.00;;;;;;6348423;22;20278;-77
2023/01/31 03:54:36;;;;;;;12.65;2.47;;;3.30;1.00;;;;;;6346650;22;20354;-77
2023/01/31 03:57:07;;;;;;;12.27;2.55;;;3.30;1.00;;;;;;6345367;22;20950;-77
2023/01/31 03:59:39;;;;;;;12.50;2.80;;;3.30;1.00;;;;;;6346851;22;20675;-78
2023/01/31 04:02:16;;;;;;;15.85;2.95;;;3.30;1.00;;;;;;6347513;22;20211;-77
2023/01/31 04:04:56;;;;;;;11.93;2.20;;;3.30;1.00;;;;;;6355935;22;20218;-78
2023/01/31 04:07:24;;;;;;;11.80;2.75;;;3.30;1.00;;;;;;6354433;22;20221;-81
2023/01/31 04:09:51;;;;;;;12.27;2.63;;;3.30;1.00;;;;;;6353234;22;20260;-82
2023/01/31 04:12:18;;;;;;;15.35;3.00;;;3.30;1.00;;;;;;6348496;22;20703;-82
2023/01/31 04:14:45;;;;;;;18.55;3.25;;;3.30;1.00;;;;;;6350713;22;20572;-82
2023/01/31 04:17:14;;;;;;;13.43;4.35;;;3.30;1.00;;;;;;6352486;22;20211;-82
2023/01/31 04:19:41;;;;;;;14.15;3.10;;;3.30;1.00;;;;;;6351543;22;20210;-82
2023/01/31 04:22:08;;;;;;;20.10;2.95;;;3.30;1.00;;;;;;6353047;22;20207;-82
2023/01/31 04:24:36;;;;;;;13.98;2.90;;;3.30;1.00;;;;;;6352400;22;20240;-82
2023/01/31 04:27:05;;;;;;;11.20;2.55;;;3.30;1.00;;;;;;6351535;22;20241;-82
2023/01/31 04:29:35;;;;;;;18.08;4.30;;;3.30;1.00;;;;;;6352919;22;20207;-81
2023/01/31 04:32:02;;;;;;;12.57;2.80;;;3.30;1.00;;;;;;6340248;22;20203;-80
2023/01/31 04:34:33;;;;;;;15.00;3.78;;;3.20;1.00;;;;;;6356446;22;20215;-81
2023/01/31 04:37:01;;;;;;;16.77;2.90;;;3.20;1.00;;;;;;6355277;22;21160;-81
2023/01/31 04:39:27;;;;;;;11.20;2.53;;;3.20;1.00;;;;;;6352225;22;20209;-82
2023/01/31 04:41:56;;;;;;;11.38;2.70;;;3.20;1.00;;;;;;6351877;22;20303;-81
2023/01/31 04:44:23;;;;;;;13.05;3.05;;;3.20;1.00;;;;;;6351436;22;20211;-81
2023/01/31 04:46:51;;;;;;;12.10;2.90;;;3.20;1.00;;;;;;6351508;22;20221;-81
2023/01/31 04:49:20;;;;;;;19.58;5.45;;;3.30;1.00;;;;;;6311208;22;20277;-81
2023/01/31 04:51:47;;;;;;;15.75;2.85;;;3.30;1.00;;;;;;6354159;22;20210;-80
2023/01/31 04:54:15;;;;;;;18.52;3.58;;;3.30;1.00;;;;;;6352708;22;20301;-81
2023/01/31 04:56:42;;;;;;;13.40;3.20;;;3.30;1.00;;;;;;6349078;22;20916;-81
2023/01/31 04:59:14;;;;;;;11.43;3.50;;;3.30;1.00;;;;;;6349436;22;20297;-82
2023/01/31 05:01:41;;;;;;;14.48;3.35;;;3.30;1.00;;;;;;6349990;22;20206;-81
2023/01/31 05:04:12;;;;;;;14.68;4.18;;;3.30;1.00;;;;;;6349060;22;20306;-81
2023/01/31 05:09:45;;;;;;;11.68;2.78;;;3.30;1.00;;;;;;6265269;22;20211;-81
2023/01/31 05:12:15;;;;;;;17.23;3.75;;;3.30;1.00;;;;;;6312767;22;20207;-82
2023/01/31 05:14:58;;;;;;;18.25;4.40;;;3.30;1.00;;;;;;6322896;22;20207;-81
2023/01/31 05:17:35;;;;;;;19.80;3.90;;;3.30;1.00;;;;;;6294452;22;20223;-82
2023/01/31 05:20:05;;;;;;;15.90;3.47;;;3.40;1.00;;;;;;6327875;22;20214;-81
2023/01/31 05:22:57;;;;;;;11.00;2.88;;;3.30;1.00;;;;;;6319935;22;20213;-82
2023/01/31 05:28:46;;;;;;;13.35;3.03;;;3.30;1.00;;;;;;6256527;22;20261;-80
2023/01/31 05:31:18;;;;;;;15.15;3.10;;;3.40;1.00;;;;;;6310964;22;20233;-82
2023/01/31 05:33:52;;;;;;;17.90;3.75;;;3.40;1.00;;;;;;6347061;22;20211;-82
2023/01/31 05:36:32;;;;;;;20.05;2.80;;;3.40;1.00;;;;;;6328344;22;20210;-82
2023/01/31 05:41:51;;;;;;;14.50;3.45;;;3.50;1.00;;;;;;6316416;22;20214;-82
2023/01/31 05:44:20;;;;;;;17.52;2.55;;;3.50;1.00;;;;;;6334457;22;20210;-81
2023/01/31 05:46:51;;;;;;;12.30;4.05;;;3.60;1.00;;;;;;6349258;22;20217;-82
2023/01/31 05:49:20;;;;;;;14.32;2.83;;;3.70;1.00;;;;;;6317384;22;20985;-82
2023/01/31 05:51:51;;;;;;;11.70;3.05;;;3.70;1.00;;;;;;6341938;22;20934;-82
2023/01/31 05:54:21;;;;;;;13.32;3.80;;;3.80;1.00;;;;;;6347445;22;20207;-82
2023/01/31 05:56:48;;;;;;;16.17;4.07;;;3.80;1.00;;;;;;6346912;22;20217;-81
2023/01/31 05:59:17;;;;;;;12.85;2.55;;;3.90;1.00;;;;;;6349369;22;20195;-81
2023/01/31 06:01:57;;;;;;;11.80;3.42;;;3.90;1.00;;;;;;6348292;22;20190;-80
2023/01/31 06:04:33;;;;;;;16.95;3.40;;;4.00;1.00;;;;;;6345220;22;20198;-81
2023/01/31 06:07:09;;;;;;;12.35;2.20;;;4.00;1.00;;;;;;6341946;22;20218;-81
2023/01/31 06:09:49;;;;;;;13.63;4.13;;;4.10;1.00;;;;;;6347781;22;20222;-80
2023/01/31 06:12:21;;;;;;;12.63;2.95;;;4.10;1.00;;;;;;6345087;22;20289;-81
2023/01/31 06:14:51;;;;;;;16.40;4.47;;;4.10;1.00;;;;;;6346498;22;20202;-81
2023/01/31 06:17:20;;;;;;;17.67;3.88;;;4.20;1.00;;;;;;6345029;22;20209;-80
2023/01/31 06:20:00;;;;;;;14.52;3.60;;;4.20;1.00;;;;;;6325021;22;20238;-80
2023/01/31 06:22:31;;;;;;;13.75;4.43;;;4.20;1.00;;;;;;6325243;22;20266;-80
2023/01/31 06:25:00;;;;;;;18.58;4.50;;;4.30;1.00;;;;;;6347705;22;20230;-80
2023/01/31 06:27:37;;;;;;;17.83;3.67;;;4.30;1.00;;;;;;6341174;22;20252;-82
2023/01/31 06:30:17;;;;;;;17.83;4.65;;;4.30;1.00;;;;;;6344633;22;20233;-80
2023/01/31 06:33:11;;;;;;;17.70;3.95;;;4.30;1.00;;;;;;6348189;22;20854;-80
2023/01/31 06:35:49;;;;;;;12.23;2.88;;;4.30;1.00;;;;;;6345381;22;20234;-81
2023/01/31 06:38:29;;;;;;;17.77;4.18;;;4.30;1.00;;;;;;6337270;22;20213;-80
2023/01/31 06:41:10;;;;;;;12.00;3.13;;;4.40;1.00;;;;;;6346922;22;20210;-80
2023/01/31 06:43:48;;;;;;;18.33;4.28;;;4.40;1.00;;;;;;6341911;22;20249;-80
2023/01/31 06:53:02;;;;;;;20.52;3.53;;;4.40;1.00;;;;;;6329765;22;20210;-79
2023/01/31 06:56:00;;;;;;;15.88;3.50;;;4.40;1.00;;;;;;6280575;22;20209;-80
2023/01/31 06:58:38;;;;;;;16.60;3.78;;;4.50;1.00;;;;;;6312277;22;20482;-81
2023/01/31 07:33:16;;;;;;;12.75;4.55;;;4.80;1.00;;;;;;5975444;23;20209;-84
2023/01/31 07:38:47;;;;;;;14.80;3.78;;;4.80;1.00;;;;;;6261987;22;20248;-88
2023/01/31 07:41:17;;;;;;;17.27;3.90;;;4.80;1.00;;;;;;6262134;22;20204;-85
2023/01/31 07:44:12;;;;;;;16.50;4.00;;;4.70;1.00;;;;;;6265956;22;20204;-89
2023/01/31 07:46:48;;;;;;;15.95;4.47;;;4.70;1.00;;;;;;6261775;22;20213;-82
2023/01/31 07:49:15;;;;;;;12.73;4.03;;;4.70;1.00;;;;;;6342582;22;20228;-83
2023/01/31 07:51:53;;;;;;;16.35;3.50;;;4.70;1.00;;;;;;6357028;22;20211;-83
2023/01/31 07:54:20;;;;;;;15.95;3.83;;;4.80;1.00;;;;;;6353390;22;20251;-84
2023/01/31 07:56:59;;;;;;;15.63;3.88;;;4.80;1.00;;;;;;6353226;22;20237;-83
2023/01/31 07:59:32;;;;;;;16.10;3.65;;;4.80;1.00;;;;;;6305567;22;20199;-85
2023/01/31 08:04:49;;;;;;;18.50;4.53;;;4.80;1.00;;;;;;6350785;22;20213;-84
2023/01/31 08:07:32;;;;;;;;;;;;;;;;;;;;;
2023/01/31 08:10:00;;;;;;;18.83;4.68;;;4.90;1.00;;;;;;6343887;22;41221;-83
2023/01/31 08:15:30;;;;;;;16.30;4.90;;;5.00;1.00;;;;;;6350770;22;20226;-82
2023/01/31 08:18:00;;;;;;;14.73;3.67;;;5.00;1.00;;;;;;6351428;22;20967;-84
2023/01/31 08:20:32;;;;;;;20.90;4.25;;;5.00;1.00;;;;;;6346973;22;20215;-84
2023/01/31 08:23:12;;;;;;;14.68;4.57;;;5.00;1.00;;;;;;6355588;22;20215;-82
2023/01/31 08:25:40;;;;;;;12.10;4.10;;;5.00;1.00;;;;;;6353301;22;20210;-83
2023/01/31 08:28:10;;;;;;;16.23;3.78;;;5.10;1.00;;;;;;6351812;22;20203;-82
2023/01/31 08:30:52;;;;;;;;;;;;;;;;;;;;;
2023/01/31 08:33:19;;;;;;;11.90;3.83;;;5.10;1.00;;;;;;6347682;22;39672;-84
2023/01/31 08:35:49;;;;;;;14.30;3.90;;;5.20;1.00;;;;;;6350883;22;20202;-81
2023/01/31 08:38:21;;;;;;;14.27;3.03;;;5.20;1.00;;;;;;6318757;22;20203;-82
2023/01/31 08:41:42;;;;;;;16.30;3.45;;;5.20;1.00;;;;;;6330761;22;20199;-83
2023/01/31 08:47:41;;;;;;;17.00;3.03;;;5.20;1.00;;;;;;6208230;22;20201;-84
2023/01/31 09:21:11;;;;;;;13.20;3.60;;;5.40;1.00;;;;;;6092656;23;20206;-84
2023/01/31 09:36:46;;;;;;;;;;;;;;;;;;;;;
2023/01/31 09:46:39;;;;;;;17.13;4.03;;;5.80;1.00;;;;;;6057342;23;20216;-80
2023/01/31 10:43:18;;;;;;;17.13;3.95;;;6.30;1.00;;;;;;6263323;22;20283;-78
2023/01/31 10:45:46;;;;;;;14.43;4.50;;;6.30;1.00;;;;;;6284869;22;20208;-80
2023/01/31 10:48:16;;;;;;;14.35;4.03;;;6.40;1.00;;;;;;6282904;22;20295;-77
2023/01/31 10:50:58;;;;;;;15.50;4.25;;;6.20;1.00;;;;;;6285389;22;20215;-79
2023/01/31 10:53:48;;;;;;;14.07;3.20;;;6.10;1.00;;;;;;6257781;22;20219;-78
2023/01/31 10:56:24;;;;;;;14.90;3.30;;;6.20;1.00;;;;;;6284332;22;20929;-80
2023/01/31 10:58:54;;;;;;;18.67;5.53;;;6.10;1.00;;;;;;6283191;22;20212;-85
2023/01/31 11:01:21;;;;;;;18.77;4.72;;;6.20;1.00;;;;;;6284258;22;20258;-78
2023/01/31 11:03:51;;;;;;;18.00;5.30;;;6.20;1.00;;;;;;6283478;22;20327;-81
2023/01/31 11:06:19;;;;;;;13.57;4.40;;;6.30;1.00;;;;;;6284733;22;20208;-78
2023/01/31 11:08:49;;;;;;;14.63;3.97;;;6.40;1.00;;;;;;6258976;22;20267;-78
2023/01/31 11:11:19;;;;;;;12.00;3.38;;;6.50;1.00;;;;;;6269682;22;20209;-77
2023/01/31 11:13:59;;;;;;;22.33;4.57;;;6.60;1.00;;;;;;6284865;22;20224;-80
2023/01/31 11:16:30;;;;;;;16.83;4.13;;;6.70;1.00;;;;;;6283912;22;20212;-79
2023/01/31 11:18:58;;;;;;;16.42;4.10;;;6.80;1.00;;;;;;6285138;22;20205;-79
2023/01/31 11:21:30;;;;;;;14.82;4.55;;;6.70;1.00;;;;;;6283554;22;20212;-78
2023/01/31 11:24:03;;;;;;;17.13;5.25;;;6.70;1.00;;;;;;6257316;22;20216;-78
2023/01/31 11:26:34;;;;;;;15.07;4.30;;;6.70;1.00;;;;;;6241276;22;20215;-78
2023/01/31 11:29:09;;;;;;;14.05;4.97;;;6.70;1.00;;;;;;6284440;22;20224;-78
2023/01/31 11:31:41;;;;;;;12.50;4.80;;;6.50;1.00;;;;;;6288439;22;20277;-78
2023/01/31 11:34:21;;;;;;;16.33;4.97;;;6.40;1.00;;;;;;6284997;22;20929;-78
2023/01/31 11:36:48;;;;;;;15.55;5.30;;;6.40;1.00;;;;;;6288015;22;20235;-83
2023/01/31 11:39:31;;;;;;;21.25;4.95;;;6.40;1.00;;;;;;6285962;22;20212;-83
2023/01/31 11:42:05;;;;;;;16.88;6.57;;;6.30;1.00;;;;;;6291469;22;20266;-80
2023/01/31 11:44:59;;;;;;;18.45;5.07;;;6.30;1.00;;;;;;6288694;22;20222;-85
2023/01/31 11:47:59;;;;;;;18.50;5.80;;;6.30;1.00;;;;;;6250423;22;20557;-82
2023/01/31 11:50:46;;;;;;;15.27;5.28;;;6.20;1.00;;;;;;6284826;22;20465;-79
2023/01/31 11:53:20;;;;;;;14.00;5.20;;;6.10;1.00;;;;;;6283557;22;20219;-84
2023/01/31 13:57:13;;;;;;;14.90;6.90;;;4.90;1.00;;;;;;6246296;22;20263;-83
2023/01/31 14:00:32;;;;;;;14.70;6.40;;;4.90;1.00;;;;;;6218247;22;20272;-83
2023/01/31 15:43:01;;;;;;;13.77;8.15;;;5.30;1.00;;;;;;5977075;23;20681;-80
2023/01/31 15:50:00;;;;;;;15.15;7.85;;;5.40;1.00;;;;;;6021384;23;20239;-81
2023/01/31 16:05:20;;;;;;;;;;;;;;;;;;;;;
2023/01/31 16:08:21;;;;;;;13.75;7.88;;;5.50;1.00;;;;;;6173538;23;49003;-80
2023/01/31 16:11:32;;;;;;;;;;;;;;;;;;;;;
2023/01/31 16:21:19;;;;;;;16.08;9.38;;;5.50;1.00;;;;;;6018539;23;20232;-82
2023/01/31 16:28:52;;;;;;;;;;;;;;;;;;;;;
2023/01/31 16:35:10;;;;;;;14.70;9.30;;;5.50;1.00;;;;;;6103295;23;20290;-80
2023/01/31 16:38:44;;;;;;;;;;;;;;;;;;;;;
2023/01/31 16:51:52;;;;;;;18.33;10.57;;;5.60;1.00;;;;;;6111697;23;20966;-80
2023/01/31 16:58:40;;;;;;;16.23;10.40;;;5.70;1.00;;;;;;6073879;23;20333;-85
2023/01/31 17:04:39;;;;;;;16.52;10.43;;;5.70;1.00;;;;;;6153395;22;20278;-80
2023/01/31 17:07:22;;;;;;;17.10;10.75;;;5.70;1.00;;;;;;6228991;22;20916;-82
2023/01/31 17:10:02;;;;;;;17.00;10.13;;;5.70;1.00;;;;;;6263819;22;20219;-80
2023/01/31 17:12:39;;;;;;;14.93;10.10;;;5.70;1.00;;;;;;6288760;22;20196;-81
2023/01/31 17:15:13;;;;;;;18.52;11.50;;;5.70;1.00;;;;;;6258297;22;20698;-81
2023/01/31 17:17:41;;;;;;;16.75;10.30;;;5.70;1.00;;;;;;6262390;22;20258;-81
2023/01/31 17:20:13;;;;;;;19.52;11.52;;;5.70;1.00;;;;;;6258034;22;20693;-80
2023/01/31 17:22:40;;;;;;;17.98;11.85;;;5.70;1.00;;;;;;6264159;22;20219;-80
2023/01/31 17:25:18;;;;;;;16.15;9.50;;;5.80;1.00;;;;;;6257000;22;20207;-84
2023/01/31 17:27:55;;;;;;;15.43;9.23;;;5.80;1.00;;;;;;6265253;22;20216;-81
2023/01/31 17:30:22;;;;;;;15.90;10.35;;;5.80;1.00;;;;;;6229449;22;20838;-83
2023/01/31 17:32:52;;;;;;;17.88;11.40;;;5.80;1.00;;;;;;6270410;22;20294;-84
2023/01/31 17:42:20;;;;;;;18.05;10.77;;;5.80;1.00;;;;;;6228392;22;21100;-81
2023/01/31 17:45:00;;;;;;;18.75;10.85;;;5.70;1.00;;;;;;6254434;22;20235;-80
2023/01/31 17:47:44;;;;;;;16.58;10.68;;;5.80;1.00;;;;;;6235792;22;20211;-81
2023/01/31 17:50:18;;;;;;;19.73;11.38;;;5.80;1.00;;;;;;6249955;22;20205;-83
2023/01/31 17:52:51;;;;;;;16.63;10.93;;;5.80;1.00;;;;;;6254056;22;21048;-81
2023/01/31 17:55:23;;;;;;;16.52;10.52;;;5.80;1.00;;;;;;6238364;22;20300;-81
2023/01/31 18:00:54;;;;;;;19.35;10.63;;;5.80;1.00;;;;;;6269752;22;20219;-82
2023/01/31 18:03:40;;;;;;;17.58;11.30;;;5.90;1.00;;;;;;6235654;22;20231;-84
2023/01/31 18:06:19;;;;;;;18.30;12.23;;;5.90;1.00;;;;;;6248130;22;20251;-83
2023/01/31 18:09:07;;;;;;;;;;;;;;;;;;;;;
2023/01/31 18:11:47;;;;;;;;;;;;;;;;;;;;;
2023/01/31 19:51:02;;;;;;;10.70;2.02;;;4.10;1.00;;;;;;6260027;22;17934570;-82
2023/01/31 19:54:41;;;;;;;8.55;1.80;;;4.20;1.00;;;;;;6218548;22;20386;-84
2023/01/31 20:46:44;;;;;;;15.85;3.60;;;4.30;1.00;;;;;;6184455;22;20215;-85
2023/01/31 20:49:44;;;;;;;14.82;3.15;;;4.30;1.00;;;;;;6189700;22;20308;-86
2023/01/31 21:02:54;;;;;;;13.30;3.28;;;4.30;1.00;;;;;;6035638;23;20210;-84
2023/01/31 21:09:23;;;;;;;14.70;3.33;;;4.30;1.00;;;;;;6095428;23;20214;-83
2023/01/31 21:12:44;;;;;;;14.43;3.65;;;4.30;1.00;;;;;;6152976;23;20261;-84
2023/01/31 21:16:03;;;;;;;14.45;3.95;;;4.30;1.00;;;;;;6136528;23;20203;-85
2023/01/31 21:19:24;;;;;;;12.60;3.17;;;4.30;1.00;;;;;;6141585;23;20366;-84
2023/01/31 21:49:03;;;;;;;13.73;4.65;;;4.80;1.00;;;;;;6071674;23;20668;-81
2023/01/31 21:51:41;;;;;;;13.90;3.33;;;4.50;1.00;;;;;;6099676;23;20211;-83
2023/01/31 21:54:22;;;;;;;10.07;2.10;;;4.40;1.00;;;;;;6110102;23;20238;-84
2023/01/31 21:57:14;;;;;;;9.18;1.35;;;4.20;1.00;;;;;;6126442;23;20207;-83
2023/01/31 22:00:04;;;;;;;10.85;1.52;;;4.00;1.00;;;;;;6150671;23;20215;-85
2023/01/31 22:02:34;;;;;;;7.30;1.92;;;3.90;1.00;;;;;;6103444;23;20313;-84
2023/01/31 22:05:03;;;;;;;11.75;1.52;;;3.80;1.00;;;;;;6151398;23;20218;-84
2023/01/31 22:07:32;;;;;;;10.00;1.73;;;3.70;1.00;;;;;;6167478;23;20217;-85
2023/01/31 22:10:00;;;;;;;8.82;1.70;;;3.70;1.00;;;;;;6246147;22;20264;-84
2023/01/31 22:12:31;;;;;;;8.18;1.00;;;3.60;1.00;;;;;;6229440;22;20210;-84
2023/01/31 22:15:03;;;;;;;9.98;1.65;;;3.60;1.00;;;;;;6231009;22;21011;-84
2023/01/31 22:17:33;;;;;;;10.07;1.70;;;3.50;1.00;;;;;;6214531;22;20209;-84
2023/01/31 22:20:10;;;;;;;9.43;1.85;;;3.50;1.00;;;;;;6219354;22;20885;-84
2023/01/31 22:22:40;;;;;;;8.80;1.50;;;3.50;1.00;;;;;;6224175;22;20278;-85
2023/01/31 22:25:15;;;;;;;11.52;1.73;;;3.40;1.00;;;;;;6226157;22;21447;-83
2023/01/31 22:27:43;;;;;;;9.27;1.58;;;3.40;1.00;;;;;;6259103;22;20234;-86
2023/01/31 22:30:15;;;;;;;12.15;2.35;;;3.40;1.00;;;;;;6244828;22;20212;-85
2023/01/31 22:32:43;;;;;;;16.30;2.63;;;3.40;1.00;;;;;;6262338;22;20212;-85
2023/01/31 22:35:10;;;;;;;15.85;2.40;;;3.40;1.00;;;;;;6262065;22;20200;-84
2023/01/31 22:40:44;;;;;;;14.95;2.88;;;3.40;1.00;;;;;;6228248;22;20208;-84
2023/01/31 22:43:14;;;;;;;16.23;2.92;;;3.50;1.00;;;;;;6271797;22;20213;-86
2023/01/31 22:45:53;;;;;;;13.82;2.50;;;3.50;1.00;;;;;;6236749;22;20201;-86
2023/01/31 22:58:41;;;;;;;15.57;3.30;;;3.60;1.00;;;;;;6108322;23;20215;-85
2023/01/31 23:53:44;;;;;;;18.08;4.50;;;4.30;1.00;;;;;;6014366;23;20223;-86
